Time;durP1;ratioP1;P1;durP2;ratioP2;P2;SDS_P1;SDS_P2;PMS_P1;PMS_P2;Temp;Humidity;BMP_temperature;BMP_pressure;BME280_temperature;BME280_humidity;BME280_pressure;Samples;Min_cycle;Max_cycle;Signal;HPM_P1;HPM_P2
2021/09/29 00:02:31;;;;;;;1.25;1.14;;;;;;;10.78;91.29;99565.25;2020167;82;50429;-83
2021/09/29 00:05:34;;;;;;;2.66;1.17;;;;;;;10.77;91.24;99561.78;2008731;82;20201;-82
2021/09/29 00:08:41;;;;;;;4.01;1.80;;;;;;;10.76;91.10;99559.16;2011263;82;20138;-81
2021/09/29 00:11:45;;;;;;;3.75;1.39;;;;;;;10.73;90.76;99564.38;2005143;82;20136;-83
2021/09/29 00:14:48;;;;;;;2.84;1.39;;;;;;;10.70;90.84;99564.38;2008024;82;20210;-82
2021/09/29 00:17:51;;;;;;;2.72;1.50;;;;;;;10.68;90.99;99559.19;2012824;78;38482;-82
2021/09/29 00:20:54;;;;;;;2.46;1.56;;;;;;;10.63;91.00;99560.94;2013655;82;20122;-82
2021/09/29 00:23:56;;;;;;;2.91;1.73;;;;;;;10.58;90.83;99562.66;2008361;82;20129;-82
2021/09/29 00:27:00;;;;;;;5.36;1.88;;;;;;;10.49;90.79;99554.91;2003343;82;20173;-82
2021/09/29 00:30:06;;;;;;;4.21;1.46;;;;;;;10.44;91.00;99554.91;2020737;82;20126;-83
2021/09/29 00:33:15;;;;;;;3.97;1.42;;;;;;;10.48;91.47;99554.03;2009106;82;20188;-82
2021/09/29 00:36:18;;;;;;;3.28;1.30;;;;;;;10.50;91.50;99559.22;2018353;82;20138;-82
2021/09/29 00:39:21;;;;;;;3.65;1.44;;;;;;;10.47;91.14;99557.50;2010673;82;20126;-82
2021/09/29 00:42:23;;;;;;;2.64;1.36;;;;;;;10.43;90.89;99553.19;2005651;82;20181;-81
2021/09/29 00:45:26;;;;;;;5.18;1.25;;;;;;;10.36;90.34;99555.78;1998174;82;20133;-82
2021/09/29 00:48:29;;;;;;;4.35;1.71;;;;;;;10.26;90.25;99555.81;2008390;82;20170;-82
2021/09/29 00:51:33;;;;;;;2.75;1.41;;;;;;;10.17;90.25;99553.16;2006890;82;20201;-82
2021/09/29 00:54:35;;;;;;;3.28;1.55;;;;;;;10.11;90.05;99552.31;1997812;82;20185;-82
2021/09/29 00:57:39;;;;;;;2.56;1.48;;;;;;;10.03;89.81;99547.09;2004476;82;20180;-82
2021/09/29 01:00:42;;;;;;;5.04;1.50;;;;;;;9.96;89.85;99548.84;1999615;82;20130;-82
2021/09/29 01:03:46;;;;;;;2.85;1.21;;;;;;;9.93;89.85;99538.47;2015512;82;20158;-82
2021/09/29 01:07:15;;;;;;;3.55;1.40;;;;;;;9.85;89.48;99539.31;2010076;82;20157;-81
2021/09/29 01:10:26;;;;;;;5.25;2.86;;;;;;;9.74;89.45;99535.88;2004582;82;20153;-81
2021/09/29 01:13:52;;;;;;;2.55;1.80;;;;;;;9.68;89.86;99534.09;1999353;82;20173;-82
2021/09/29 01:21:18;;;;;;;4.97;1.56;;;;;;;9.62;89.54;99528.91;1982786;82;20280;-82
2021/09/29 01:24:36;;;;;;;3.96;1.67;;;;;;;9.47;89.55;99534.06;1977396;82;20172;-82
2021/09/29 01:27:40;;;;;;;3.51;1.72;;;;;;;9.45;89.98;99536.66;1986347;82;20279;-83
2021/09/29 01:30:43;;;;;;;2.69;1.83;;;;;;;9.35;90.01;99535.78;1986672;82;20153;-82
2021/09/29 01:33:47;;;;;;;2.61;1.70;;;;;;;9.31;90.17;99534.03;1984995;82;20165;-82
2021/09/29 01:36:50;;;;;;;2.44;2.06;;;;;;;9.29;90.63;99533.16;1987961;82;20156;-82
2021/09/29 01:39:54;;;;;;;4.78;1.75;;;;;;;9.28;90.77;99535.75;1997065;82;20197;-82
2021/09/29 01:42:58;;;;;;;3.11;1.76;;;;;;;9.25;90.78;99528.84;1980097;82;20136;-82
2021/09/29 01:46:01;;;;;;;3.40;2.17;;;;;;;9.24;90.64;99527.09;1981032;82;20168;-82
2021/09/29 01:49:40;;;;;;;2.54;1.79;;;;;;;9.23;90.86;99535.75;1980435;82;20240;-81
2021/09/29 01:52:45;;;;;;;2.51;1.60;;;;;;;9.23;90.98;99524.50;1979855;82;20165;-81
2021/09/29 01:55:49;;;;;;;1.70;1.60;;;;;;;9.21;91.10;99521.91;1982846;82;20200;-83
2021/09/29 01:58:52;;;;;;;2.84;1.69;;;;;;;9.22;91.26;99527.97;1990543;82;20115;-81
2021/09/29 02:01:55;;;;;;;3.00;1.79;;;;;;;9.23;91.44;99524.50;1992978;82;20126;-82
2021/09/29 02:04:58;;;;;;;2.11;1.91;;;;;;;9.26;91.73;99524.50;1998356;82;20243;-81
2021/09/29 02:08:06;;;;;;;2.53;1.98;;;;;;;9.31;91.77;99523.66;1993402;82;20163;-82
2021/09/29 02:11:08;;;;;;;2.97;1.70;;;;;;;9.36;91.62;99510.75;1997018;82;20280;-82
2021/09/29 02:14:13;;;;;;;3.30;1.91;;;;;;;9.39;91.53;99519.38;2002155;82;20130;-81
2021/09/29 02:17:17;;;;;;;5.70;2.01;;;;;;;9.43;91.79;99512.47;1995751;82;20130;-81
2021/09/29 02:20:20;;;;;;;2.92;2.13;;;;;;;9.47;91.94;99509.00;1992336;82;20201;-82
2021/09/29 02:23:23;;;;;;;2.89;1.85;;;;;;;9.50;92.16;99514.19;1996447;82;20181;-83
2021/09/29 02:26:26;;;;;;;3.65;1.70;;;;;;;9.54;92.26;99515.09;1993759;82;20169;-81
2021/09/29 02:29:28;;;;;;;3.84;1.91;;;;;;;9.55;92.24;99517.69;1996903;82;20130;-81
2021/09/29 02:32:32;;;;;;;2.79;1.80;;;;;;;9.57;92.33;99508.19;1991606;79;49073;-82
2021/09/29 02:35:34;;;;;;;2.30;1.67;;;;;;;9.63;92.28;99512.50;1996519;82;20134;-81
2021/09/29 02:38:38;;;;;;;2.39;1.59;;;;;;;9.64;92.09;99507.31;1996339;82;20130;-81
2021/09/29 02:41:40;;;;;;;5.29;1.50;;;;;;;9.65;92.13;99515.94;2004905;82;20207;-82
2021/09/29 02:44:43;;;;;;;2.86;1.56;;;;;;;9.65;92.26;99510.78;2009150;82;20177;-82
2021/09/29 02:47:46;;;;;;;4.78;2.95;;;;;;;9.66;92.37;99503.00;1989076;79;27442;-81
2021/09/29 02:50:48;;;;;;;1.46;1.34;;;;;;;9.67;92.52;99509.91;1992797;82;20119;-81
2021/09/29 02:53:51;;;;;;;2.13;1.42;;;;;;;9.71;92.62;99510.78;1988619;82;20247;-80
2021/09/29 02:56:54;;;;;;;1.79;1.65;;;;;;;9.77;92.41;99505.59;1994585;82;20123;-80
2021/09/29 02:59:57;;;;;;;2.45;1.69;;;;;;;9.81;91.97;99515.09;1991006;82;20142;-80
2021/09/29 03:02:59;;;;;;;2.79;1.38;;;;;;;9.77;91.82;99505.59;1994148;79;25563;-80
2021/09/29 03:06:02;;;;;;;2.83;1.61;;;;;;;9.77;91.89;99512.53;1993480;82;20163;-80
2021/09/29 03:09:05;;;;;;;2.38;1.40;;;;;;;9.76;92.04;99506.47;1990107;82;20131;-80
2021/09/29 03:12:08;;;;;;;5.71;1.88;;;;;;;9.80;91.98;99509.91;1992837;82;20126;-81
2021/09/29 03:15:11;;;;;;;3.61;1.45;;;;;;;9.81;91.70;99512.50;1989786;82;20166;-80
2021/09/29 03:18:14;;;;;;;1.98;1.40;;;;;;;9.80;91.25;99515.13;2002209;82;20165;-80
2021/09/29 03:21:17;;;;;;;2.66;1.56;;;;;;;9.72;90.96;99506.47;1988968;82;20258;-81
2021/09/29 03:24:20;;;;;;;2.70;1.92;;;;;;;9.62;90.79;99511.63;1989637;82;20139;-81
2021/09/29 03:27:23;;;;;;;2.97;1.58;;;;;;;9.52;90.68;99514.22;1992314;81;20160;-80
2021/09/29 03:30:26;;;;;;;2.44;1.42;;;;;;;9.42;90.34;99510.75;1991841;81;20147;-81
2021/09/29 03:33:29;;;;;;;4.93;1.92;;;;;;;9.31;90.40;99513.28;1994779;82;20280;-81
2021/09/29 03:36:32;;;;;;;2.16;1.56;;;;;;;9.25;90.63;99518.47;1996021;81;20154;-80
2021/09/29 03:39:35;;;;;;;2.56;1.50;;;;;;;9.19;90.73;99515.00;1990870;81;20240;-81
2021/09/29 03:42:38;;;;;;;2.78;1.73;;;;;;;9.12;90.95;99511.50;1996839;82;20130;-80
2021/09/29 03:45:40;;;;;;;3.31;1.74;;;;;;;9.06;91.12;99508.91;1993344;81;20177;-80
2021/09/29 03:48:44;;;;;;;1.79;1.64;;;;;;;9.00;90.98;99514.94;1993114;82;20397;-80
2021/09/29 03:51:47;;;;;;;3.36;1.65;;;;;;;8.93;90.93;99520.06;1990777;82;20291;-80
2021/09/29 03:54:50;;;;;;;4.54;1.80;;;;;;;8.89;91.07;99520.94;1995088;81;20172;-80
2021/09/29 03:57:52;;;;;;;3.88;1.48;;;;;;;8.85;90.99;99516.59;1996088;81;20323;-80
2021/09/29 04:00:55;;;;;;;3.65;1.89;;;;;;;8.81;91.00;99515.72;1988881;82;20292;-80
2021/09/29 04:03:58;;;;;;;2.19;1.70;;;;;;;8.78;91.25;99519.13;1992634;82;20284;-81
2021/09/29 04:07:01;;;;;;;4.91;1.86;;;;;;;8.77;91.42;99521.72;1995091;82;20205;-81
2021/09/29 04:10:05;;;;;;;4.10;1.79;;;;;;;8.73;91.47;99517.41;1990277;82;20292;-80
2021/09/29 04:13:08;;;;;;;3.49;1.83;;;;;;;8.70;91.66;99515.66;2003934;82;20134;-81
2021/09/29 04:16:11;;;;;;;7.39;1.64;;;;;;;8.71;91.83;99512.22;1989801;82;20317;-80
2021/09/29 04:19:15;;;;;;;3.70;1.80;;;;;;;8.72;91.53;99520.84;1991508;82;20287;-80
2021/09/29 04:22:17;;;;;;;4.34;1.69;;;;;;;8.72;91.96;99519.13;1998304;82;20178;-80
2021/09/29 04:25:22;;;;;;;6.30;1.73;;;;;;;8.75;92.45;99519.13;1993424;81;20189;-80
2021/09/29 04:28:24;;;;;;;3.01;1.60;;;;;;;8.76;92.30;99514.81;1993501;82;20380;-81
2021/09/29 04:31:27;;;;;;;2.80;1.80;;;;;;;8.74;92.06;99522.56;1991733;82;20305;-80
2021/09/29 04:34:29;;;;;;;1.98;1.66;;;;;;;8.76;92.33;99525.19;1989879;81;20295;-81
2021/09/29 04:37:32;;;;;;;3.66;2.17;;;;;;;8.75;92.46;99524.31;1991404;82;20182;-80
2021/09/29 04:40:35;;;;;;;4.07;2.13;;;;;;;8.81;92.83;99526.09;1996804;81;20280;-81
2021/09/29 04:43:38;;;;;;;5.99;2.11;;;;;;;8.86;93.07;99518.31;1998253;81;20391;-81
2021/09/29 04:46:41;;;;;;;2.47;1.95;;;;;;;8.89;92.98;99516.63;1993082;81;20287;-80
2021/09/29 04:49:44;;;;;;;4.25;2.10;;;;;;;8.93;92.88;99515.75;1989387;81;20473;-80
2021/09/29 04:52:47;;;;;;;4.34;2.41;;;;;;;8.96;92.57;99513.19;1994438;82;20391;-80
2021/09/29 04:55:49;;;;;;;3.42;2.78;;;;;;;8.98;93.02;99510.63;1998197;81;20190;-80
2021/09/29 04:58:52;;;;;;;5.81;2.28;;;;;;;8.98;93.14;99513.22;1993460;81;20142;-81
2021/09/29 05:01:55;;;;;;;5.76;2.41;;;;;;;9.01;93.44;99514.09;1988144;81;20279;-80
2021/09/29 05:04:58;;;;;;;3.58;2.15;;;;;;;9.05;93.29;99510.63;1989193;82;20163;-80
2021/09/29 05:08:05;;;;;;;4.47;2.09;;;;;;;9.07;93.28;99510.63;1995305;81;20398;-80
2021/09/29 05:11:17;;;;;;;4.03;2.34;;;;;;;9.08;93.14;99515.81;1993995;81;20171;-80
2021/09/29 05:14:20;;;;;;;3.81;2.46;;;;;;;9.09;93.29;99517.56;1995838;81;20343;-80
2021/09/29 05:17:23;;;;;;;3.26;2.04;;;;;;;9.10;93.35;99523.59;1995981;81;20131;-80
2021/09/29 05:20:26;;;;;;;7.07;2.47;;;;;;;9.08;93.28;99515.81;1986066;81;20130;-80
2021/09/29 05:23:28;;;;;;;3.63;2.46;;;;;;;9.09;93.35;99527.91;1994711;81;20299;-81
2021/09/29 05:26:31;;;;;;;2.76;1.84;;;;;;;9.12;93.59;99524.47;1998285;81;20171;-80
2021/09/29 05:29:35;;;;;;;2.61;2.04;;;;;;;9.15;93.29;99526.19;1989352;82;20315;-80
2021/09/29 05:32:38;;;;;;;3.89;2.13;;;;;;;9.15;92.93;99516.69;2004587;79;41020;-81
2021/09/29 05:35:41;;;;;;;4.57;1.73;;;;;;;9.18;92.47;99519.31;1991122;82;20138;-81
2021/09/29 05:38:44;;;;;;;4.59;2.25;;;;;;;9.20;92.61;99517.59;1997077;81;20312;-81
2021/09/29 05:41:47;;;;;;;5.63;1.74;;;;;;;9.25;92.75;99517.59;1996826;82;20130;-82
2021/09/29 05:44:50;;;;;;;5.32;1.85;;;;;;;9.30;92.72;99521.06;1992460;82;20368;-81
2021/09/29 05:47:52;;;;;;;2.59;1.95;;;;;;;9.38;92.56;99524.56;2004227;81;20228;-81
2021/09/29 05:50:55;;;;;;;3.70;1.85;;;;;;;9.49;92.80;99521.97;1990295;82;20134;-81
2021/09/29 05:53:58;;;;;;;4.57;1.63;;;;;;;9.59;93.10;99524.59;1993450;82;20236;-81
2021/09/29 05:57:01;;;;;;;3.33;1.50;;;;;;;9.71;93.54;99541.03;1990232;82;20177;-82
2021/09/29 06:00:06;;;;;;;2.89;1.56;;;;;;;9.84;93.65;99541.03;1995890;82;20157;-82
2021/09/29 06:03:08;;;;;;;5.49;1.80;;;;;;;9.99;93.51;99542.78;1990111;82;20154;-82
2021/09/29 06:06:11;;;;;;;3.54;1.58;;;;;;;10.15;93.31;99544.50;1991757;81;20231;-82
2021/09/29 06:09:14;;;;;;;4.64;1.40;;;;;;;10.28;93.12;99535.91;1997857;81;20178;-83
2021/09/29 06:12:17;;;;;;;3.71;1.48;;;;;;;10.41;92.71;99541.06;1998609;82;20134;-81
2021/09/29 06:15:25;;;;;;;4.36;1.61;;;;;;;10.51;92.50;99546.25;1997079;82;20131;-82
2021/09/29 06:18:28;;;;;;;1.84;1.00;;;;;;;10.60;92.06;99540.19;1990352;82;20130;-84
2021/09/29 06:21:31;;;;;;;4.44;1.56;;;;;;;10.66;91.58;99537.56;1993331;81;20181;-84
2021/09/29 07:38:07;;;;;;;3.63;0.88;;;;;;;12.09;88.05;99538.56;2013300;81;20136;-86
2021/09/29 07:41:16;;;;;;;5.26;0.65;;;;;;;12.19;87.55;99537.59;1988652;82;20129;-85
2021/09/29 07:45:15;;;;;;;3.63;0.68;;;;;;;12.29;87.26;99541.00;1990256;81;20243;-85
2021/09/29 07:48:57;;;;;;;5.21;0.60;;;;;;;12.47;86.51;99537.38;2084709;77;20183;-84
2021/09/29 07:55:35;;;;;;;3.25;0.80;;;;;;;12.57;85.60;99546.81;2051288;79;20236;-83
2021/09/29 07:59:07;;;;;;;3.10;0.68;;;;;;;12.59;85.95;99539.84;2040446;79;20194;-83
2021/09/29 08:02:52;;;;;;;1.85;0.50;;;;;;;12.62;86.24;99539.81;2039724;79;20178;-81
2021/09/29 08:07:08;;;;;;;2.97;0.52;;;;;;;12.65;86.75;99539.78;2030132;80;20232;-82
2021/09/29 08:15:07;;;;;;;3.79;1.23;;;;;;;13.12;87.33;99533.19;2040568;79;20217;-83
2021/09/29 09:46:16;;;;;;;3.91;0.52;;;;;;;14.97;78.56;99545.03;2185211;70;20177;-80
2021/09/29 09:49:19;;;;;;;5.63;0.86;;;;;;;14.73;80.71;99535.06;2020247;80;20273;-80
2021/09/29 09:52:34;;;;;;;4.47;0.70;;;;;;;14.56;82.01;99519.69;2019287;80;20126;-81
2021/09/29 09:55:37;;;;;;;2.64;0.44;;;;;;;14.44;83.25;99527.75;2016198;80;20114;-81
2021/09/29 09:59:08;;;;;;;2.84;0.40;;;;;;;14.38;84.85;99533.06;2025692;80;20137;-81
2021/09/29 10:10:10;;;;;;;1.85;0.47;;;;;;;14.89;85.98;99532.97;2237210;70;20207;-79
2021/09/29 10:32:25;;;;;;;2.45;0.40;;;;;;;15.03;82.27;99528.34;2219887;70;20222;-80
2021/09/29 10:45:47;;;;;;;2.31;0.40;;;;;;;14.48;85.04;99564.22;2002311;81;20178;-79
2021/09/29 10:50:07;;;;;;;1.30;0.30;;;;;;;14.38;85.66;99561.78;2008118;81;20186;-81
2021/09/29 11:07:53;;;;;;;0.96;0.29;;;;;;;14.93;86.97;99568.66;2013802;81;20247;-80
2021/09/29 12:08:56;;;;;;;0.63;0.10;;;;;;;16.12;72.07;99624.59;2011524;81;20135;-80
2021/09/29 12:15:57;;;;;;;0.10;0.10;;;;;;;15.98;70.39;99634.53;2004713;81;20179;-80
2021/09/29 12:44:58;;;;;;;0.22;0.10;;;;;;;16.90;65.55;99652.41;2057899;70;20278;-81
2021/09/29 12:48:42;;;;;;;0.54;0.20;;;;;;;16.80;64.77;99653.53;1965010;82;2065377;-81
2021/09/29 12:52:57;;;;;;;0.44;0.10;;;;;;;16.81;65.35;99657.03;2000018;81;20226;-81
2021/09/29 12:56:57;;;;;;;0.29;0.20;;;;;;;16.58;64.09;99653.19;2001898;81;20184;-81
2021/09/29 13:00:16;;;;;;;1.63;0.10;;;;;;;16.45;64.79;99643.03;1997835;81;20175;-80
2021/09/29 13:03:27;;;;;;;2.21;0.20;;;;;;;16.19;63.80;99648.91;1996640;81;58420;-80
2021/09/29 13:06:34;;;;;;;0.80;0.10;;;;;;;16.08;63.90;99651.75;1996973;81;20279;-81
2021/09/29 13:09:38;;;;;;;0.10;0.10;;;;;;;16.00;65.51;99661.56;1999109;82;20137;-81
2021/09/29 13:12:41;;;;;;;0.85;0.20;;;;;;;15.83;64.48;99667.16;1995191;81;20141;-81
2021/09/29 13:15:50;;;;;;;1.99;0.41;;;;;;;15.87;64.77;99668.81;1996310;81;20169;-81
2021/09/29 13:18:59;;;;;;;1.56;0.16;;;;;;;16.02;62.86;99670.25;1996989;81;20226;-80
2021/09/29 13:22:09;;;;;;;0.51;0.10;;;;;;;16.17;61.27;99672.53;1997297;81;20176;-81
2021/09/29 13:36:33;;;;;;;0.30;0.10;;;;;;;16.75;55.06;99679.03;1991043;82;20188;-80
2021/09/29 13:39:08;;;;;;;1.96;0.50;;;;;;;16.78;56.50;99689.44;1992189;82;20266;-80
2021/09/29 13:42:11;;;;;;;0.54;0.19;;;;;;;16.83;55.64;99694.56;1990678;81;20238;-81
2021/09/29 13:45:14;;;;;;;2.44;0.20;;;;;;;16.91;55.81;99703.97;1992844;82;20656;-80
2021/09/29 13:48:19;;;;;;;0.44;0.10;;;;;;;16.94;55.14;99705.66;1991604;79;30213;-80
2021/09/29 13:51:25;;;;;;;0.13;0.10;;;;;;;17.00;53.69;99699.38;1990472;81;20188;-80
2021/09/29 13:54:28;;;;;;;0.66;0.20;;;;;;;17.09;54.25;99704.41;1992198;81;20749;-80
2021/09/29 13:58:13;;;;;;;0.75;0.10;;;;;;;17.17;54.25;99700.66;1990835;81;20196;-81
2021/09/29 14:01:29;;;;;;;0.38;0.20;;;;;;;17.17;53.19;99720.81;1991437;78;42417;-81
2021/09/29 14:15:17;;;;;;;2.15;0.20;;;;;;;17.02;52.32;99711.56;1994957;81;20219;-81
2021/09/29 14:28:39;;;;;;;1.81;0.10;;;;;;;16.90;51.00;99733.72;1992366;81;20213;-80
2021/09/29 14:34:48;;;;;;;3.49;0.21;;;;;;;16.85;52.85;99743.44;1990031;81;20269;-79
2021/09/29 14:37:51;;;;;;;1.04;0.22;;;;;;;16.81;52.78;99748.81;1991443;81;20207;-80
2021/09/29 14:40:53;;;;;;;0.61;0.20;;;;;;;16.75;53.52;99754.22;1989515;81;20268;-80
2021/09/29 14:43:56;;;;;;;2.47;0.20;;;;;;;16.76;53.11;99758.56;1990911;81;20196;-80
2021/09/29 14:46:59;;;;;;;1.06;0.20;;;;;;;16.75;53.79;99759.47;1990006;79;23958;-80
2021/09/29 14:50:03;;;;;;;1.27;0.14;;;;;;;16.80;53.93;99766.31;1991099;81;20238;-80
2021/09/29 14:53:05;;;;;;;0.22;0.10;;;;;;;16.66;52.91;99765.72;1991144;81;20197;-80
2021/09/29 14:56:09;;;;;;;1.49;0.20;;;;;;;16.43;52.18;99771.50;1990910;81;21547;-80
2021/09/29 14:59:12;;;;;;;0.91;0.28;;;;;;;16.21;52.63;99786.84;1991288;81;20202;-80
2021/09/29 15:02:15;;;;;;;1.17;0.20;;;;;;;16.06;53.72;99794.16;1987767;79;25558;-80
2021/09/29 15:12:19;;;;;;;1.01;0.20;;;;;;;15.35;59.13;99816.38;2032180;71;20167;-81
2021/09/29 15:15:30;;;;;;;1.17;0.20;;;;;;;15.04;60.81;99836.91;2003725;81;20197;-80
2021/09/29 15:52:35;;;;;;;0.36;0.10;;;;;;;14.65;63.12;99879.31;1998678;81;20269;-80
2021/09/29 16:02:24;;;;;;;0.81;0.20;;;;;;;14.64;61.53;99899.38;1993104;79;27376;-80
2021/09/29 16:05:52;;;;;;;3.01;0.20;;;;;;;14.76;59.75;99893.13;1992885;81;21162;-80
2021/09/29 16:12:35;;;;;;;1.16;0.10;;;;;;;15.02;60.91;99911.91;1993454;81;20658;-80
2021/09/29 16:16:02;;;;;;;0.32;0.10;;;;;;;14.84;61.08;99909.56;1993101;79;24278;-80
2021/09/29 16:32:21;;;;;;;0.49;0.10;;;;;;;13.46;63.83;99943.16;1996920;79;24562;-79
2021/09/29 16:35:30;;;;;;;1.75;0.20;;;;;;;13.22;63.48;99944.19;1997014;81;20185;-80
2021/09/29 16:38:33;;;;;;;0.47;0.10;;;;;;;13.06;65.26;99940.78;1994440;81;20314;-79
2021/09/29 16:41:37;;;;;;;0.57;0.10;;;;;;;12.92;65.85;99948.66;1999378;81;20918;-80
2021/09/29 16:44:41;;;;;;;0.80;0.20;;;;;;;12.80;66.83;99953.09;1999091;81;20207;-80
2021/09/29 16:47:45;;;;;;;0.45;0.14;;;;;;;12.64;67.74;99963.56;1995374;79;28290;-80
2021/09/29 16:50:59;;;;;;;2.22;0.10;;;;;;;12.58;68.63;99957.53;1996832;81;21112;-80
2021/09/29 16:54:12;;;;;;;0.65;0.10;;;;;;;12.50;69.19;99967.94;1997327;81;20665;-80
2021/09/29 16:57:18;;;;;;;1.76;0.10;;;;;;;12.43;69.80;99976.66;1998368;81;20163;-80
2021/09/29 17:00:25;;;;;;;0.45;0.20;;;;;;;12.35;70.18;99968.00;1995864;81;21338;-80
2021/09/29 17:03:27;;;;;;;0.71;0.10;;;;;;;12.29;69.42;99970.63;1997400;81;20179;-80
2021/09/29 17:06:33;;;;;;;0.55;0.14;;;;;;;12.17;70.99;99978.44;1997549;81;20175;-79
2021/09/29 17:09:36;;;;;;;0.29;0.20;;;;;;;12.04;70.79;99988.03;1996792;81;20301;-80
2021/09/29 17:12:42;;;;;;;2.36;0.44;;;;;;;11.98;70.04;99994.06;2000595;81;20194;-80
2021/09/29 17:15:45;;;;;;;0.20;0.20;;;;;;;11.96;69.62;99994.94;1994440;79;23662;-80
2021/09/29 17:18:49;;;;;;;0.56;0.22;;;;;;;11.86;69.52;100001.91;1991923;81;20217;-80
2021/09/29 17:22:03;;;;;;;2.15;0.20;;;;;;;11.82;70.83;100014.88;2001958;81;20156;-84
2021/09/29 17:25:33;;;;;;;0.49;0.20;;;;;;;11.74;70.63;100017.47;1990811;81;20166;-81
2021/09/29 17:28:38;;;;;;;2.26;1.81;;;;;;;11.64;71.25;100031.31;2001575;81;20172;-82
2021/09/29 17:35:11;;;;;;;3.83;0.20;;;;;;;11.50;71.47;100034.78;2009890;81;20296;-82
2021/09/29 17:53:24;;;;;;;3.93;0.20;;;;;;;11.10;76.74;100072.75;1996708;81;20188;-83
2021/09/29 17:56:31;;;;;;;0.20;0.20;;;;;;;11.03;77.21;100078.81;1995102;81;20193;-83
2021/09/29 17:59:37;;;;;;;1.40;0.10;;;;;;;11.02;77.95;100097.84;1999753;81;20195;-83
2021/09/29 18:02:46;;;;;;;1.33;0.25;;;;;;;10.99;77.93;100099.56;1993979;78;40492;-84
2021/09/29 18:09:07;;;;;;;1.08;0.20;;;;;;;10.92;78.50;100113.38;1988224;81;20177;-83
2021/09/29 18:12:10;;;;;;;2.70;0.20;;;;;;;10.95;78.38;100115.97;1990193;82;20145;-83
2021/09/29 18:15:13;;;;;;;1.34;0.30;;;;;;;10.96;78.28;100123.81;1993164;81;20149;-83
2021/09/29 18:18:23;;;;;;;0.31;0.20;;;;;;;10.97;77.94;100128.16;1987976;82;20202;-84
2021/09/29 18:21:26;;;;;;;0.77;0.30;;;;;;;10.98;78.76;100129.00;1988803;81;20153;-82
2021/09/29 18:24:30;;;;;;;1.94;0.20;;;;;;;10.90;79.00;100126.34;1996393;82;20153;-83
2021/09/29 18:27:34;;;;;;;1.15;0.20;;;;;;;10.86;79.70;100125.47;1987704;82;20162;-84
2021/09/29 18:30:41;;;;;;;1.30;0.14;;;;;;;10.76;80.00;100133.19;1995680;81;20161;-83
2021/09/29 18:33:44;;;;;;;0.39;0.10;;;;;;;10.70;80.46;100143.53;1987839;81;20153;-83
2021/09/29 18:36:48;;;;;;;0.59;0.10;;;;;;;10.62;80.88;100138.31;2000139;81;20243;-83
2021/09/29 18:39:54;;;;;;;1.80;0.34;;;;;;;10.55;81.08;100142.56;1989958;81;20148;-84
2021/09/29 18:42:57;;;;;;;0.84;0.20;;;;;;;10.54;81.35;100146.03;1993893;81;20158;-84
2021/09/29 18:46:02;;;;;;;0.69;0.31;;;;;;;10.53;81.88;100144.28;1985975;81;20180;-82
2021/09/29 18:49:09;;;;;;;2.34;0.20;;;;;;;10.49;82.34;100145.13;1992604;81;21835;-81
2021/09/29 18:52:13;;;;;;;0.85;0.20;;;;;;;10.49;82.66;100152.91;1992498;81;20216;-83
2021/09/29 18:55:21;;;;;;;1.30;0.30;;;;;;;10.46;81.85;100152.91;2010423;81;20287;-83
2021/09/29 19:08:53;;;;;;;1.10;0.30;;;;;;;10.24;82.59;100170.00;2002304;81;20152;-82
2021/09/29 19:11:55;;;;;;;0.84;0.20;;;;;;;10.20;82.14;100175.97;1998626;81;20225;-83
2021/09/29 19:14:59;;;;;;;0.39;0.21;;;;;;;10.18;81.87;100177.69;1988901;81;20195;-82
2021/09/29 19:18:04;;;;;;;1.00;0.30;;;;;;;10.11;80.93;100178.50;1995675;81;20177;-83
2021/09/29 19:21:09;;;;;;;0.60;0.34;;;;;;;10.10;80.27;100186.25;2000786;81;20184;-82
2021/09/29 19:24:12;;;;;;;1.27;0.36;;;;;;;10.07;79.70;100187.09;2001713;81;20178;-83
2021/09/29 19:27:15;;;;;;;2.24;0.20;;;;;;;10.03;78.54;100197.41;2006845;81;20187;-82
2021/09/29 19:30:19;;;;;;;0.57;0.20;;;;;;;9.97;78.14;100203.41;1997627;81;21714;-83
2021/09/29 19:33:26;;;;;;;1.05;0.26;;;;;;;9.91;78.20;100201.63;2001227;81;20144;-83
2021/09/29 19:36:30;;;;;;;0.34;0.20;;;;;;;9.84;78.25;100204.13;2010116;81;20189;-83
2021/09/29 19:39:33;;;;;;;0.30;0.20;;;;;;;9.77;77.91;100208.38;2012698;81;20227;-83
2021/09/29 19:42:39;;;;;;;0.66;0.20;;;;;;;9.71;78.76;100208.31;2003859;81;20152;-83
2021/09/29 19:45:43;;;;;;;0.28;0.19;;;;;;;9.60;78.60;100212.50;2001528;81;20156;-82
2021/09/29 19:49:07;;;;;;;0.36;0.30;;;;;;;9.56;79.17;100211.59;2005150;81;20160;-83
2021/09/29 20:09:09;;;;;;;0.41;0.21;;;;;;;8.96;82.03;100243.53;1983273;82;20168;-82
2021/09/29 20:12:13;;;;;;;1.06;0.10;;;;;;;8.87;82.66;100240.81;1987925;82;20142;-83
2021/09/29 20:15:22;;;;;;;0.20;0.14;;;;;;;8.75;82.73;100251.81;1983244;82;20247;-83
2021/09/29 20:18:29;;;;;;;;;;;;;;;8.67;82.95;100248.25;1995216;81;20156;-83
2021/09/29 20:21:36;;;;;;;0.30;0.10;;;;;;;8.61;83.07;100250.72;1999566;81;20125;-82
2021/09/29 20:24:44;;;;;;;0.79;0.20;;;;;;;8.53;83.21;100260.06;2003696;81;20424;-83
2021/09/29 20:27:48;;;;;;;4.14;0.49;;;;;;;8.44;83.61;100265.97;2000732;81;20452;-83
2021/09/29 20:30:53;;;;;;;0.55;0.13;;;;;;;8.42;83.78;100269.34;1990507;82;20138;-84
2021/09/29 20:43:55;;;;;;;0.36;0.20;;;;;;;8.20;84.81;100286.16;1989254;82;20291;-82
2021/09/29 20:47:11;;;;;;;0.99;0.15;;;;;;;8.15;84.84;100293.84;1990638;81;20371;-82
2021/09/29 20:50:17;;;;;;;2.29;0.40;;;;;;;8.08;84.83;100299.75;1988447;82;20320;-81
2021/09/29 20:53:24;;;;;;;0.66;0.20;;;;;;;8.03;85.09;100295.28;1981230;82;20296;-80
2021/09/29 20:56:27;;;;;;;0.38;0.20;;;;;;;7.97;85.26;100302.94;1988242;82;20342;-81
2021/09/29 20:59:30;;;;;;;2.16;0.21;;;;;;;7.92;85.58;100300.28;1992188;82;21131;-82
2021/09/29 21:02:34;;;;;;;0.44;0.17;;;;;;;7.87;85.73;100304.44;1991364;82;20320;-81
2021/09/29 21:05:37;;;;;;;0.59;0.20;;;;;;;7.81;85.93;100302.63;1994276;81;20384;-81
2021/09/29 21:08:49;;;;;;;2.76;0.56;;;;;;;7.77;86.13;100305.09;1998243;82;20142;-81
2021/09/29 21:18:11;;;;;;;0.76;0.20;;;;;;;7.70;86.67;100319.59;1999202;81;20563;-80
2021/09/29 21:21:14;;;;;;;5.39;1.21;;;;;;;7.67;86.87;100326.41;2000085;81;20325;-82
2021/09/29 21:24:17;;;;;;;2.15;0.50;;;;;;;7.66;87.00;100332.44;2001924;81;20303;-81
2021/09/29 21:27:20;;;;;;;1.42;0.26;;;;;;;7.64;87.06;100331.53;2002710;81;20323;-80
2021/09/29 21:30:25;;;;;;;0.56;0.28;;;;;;;7.58;87.00;100329.69;2007099;81;20299;-81
2021/09/29 21:33:31;;;;;;;1.42;0.20;;;;;;;7.51;86.94;100340.69;1999277;81;20315;-81
2021/09/29 21:36:36;;;;;;;1.01;0.19;;;;;;;7.47;86.78;100342.34;1999280;81;20277;-81
2021/09/29 22:03:43;;;;;;;0.68;0.30;;;;;;;7.21;88.06;100358.94;2003946;78;88138;-81
2021/09/29 22:23:36;;;;;;;2.25;0.30;;;;;;;7.21;88.46;100375.31;2002278;81;20394;-80
2021/09/29 22:33:03;;;;;;;1.34;0.30;;;;;;;7.06;88.54;100369.75;2008870;78;31862;-81
2021/09/29 23:06:56;;;;;;;0.74;0.20;;;;;;;6.76;88.36;100377.56;1992852;82;20310;-81
2021/09/29 23:10:05;;;;;;;1.38;0.30;;;;;;;6.74;88.28;100378.38;2000243;81;20285;-80
